sensor_id;sensor_type;location;lat;lon;timestamp;pressure;altitude;pressure_sealevel;temperature;humidity
56681;BME280;42558;52.388;13.390;2023-03-12T00:01:24;100568.18;;;-1.79;100.00
56681;BME280;42558;52.388;13.390;2023-03-12T00:04:02;100571.85;;;-1.70;100.00
56681;BME280;42558;52.388;13.390;2023-03-12T00:06:32;100570.88;;;-1.81;100.00
56681;BME280;42558;52.388;13.390;2023-03-12T00:09:03;100574.66;;;-1.86;100.00
56681;BME280;42558;52.388;13.390;2023-03-12T00:11:33;100573.83;;;-1.86;100.00
56681;BME280;42558;52.388;13.390;2023-03-12T00:14:03;100574.40;;;-1.82;100.00
56681;BME280;42558;52.388;13.390;2023-03-12T00:16:32;100572.65;;;-1.82;100.00
56681;BME280;42558;52.388;13.390;2023-03-12T00:19:02;100569.54;;;-1.77;100.00
56681;BME280;42558;52.388;13.390;2023-03-12T00:21:32;100568.91;;;-1.79;100.00
56681;BME280;42558;52.388;13.390;2023-03-12T00:24:02;100570.10;;;-1.82;100.00
56681;BME280;42558;52.388;13.390;2023-03-12T00:26:33;100573.61;;;-1.87;100.00
56681;BME280;42558;52.388;13.390;2023-03-12T00:29:03;100572.80;;;-1.83;100.00
56681;BME280;42558;52.388;13.390;2023-03-12T00:31:34;100576.75;;;-1.80;100.00
56681;BME280;42558;52.388;13.390;2023-03-12T00:34:04;100576.52;;;-1.81;100.00
56681;BME280;42558;52.388;13.390;2023-03-12T00:36:34;100574.90;;;-1.79;100.00
56681;BME280;42558;52.388;13.390;2023-03-12T00:39:02;100575.90;;;-1.71;99.61
56681;BME280;42558;52.388;13.390;2023-03-12T00:41:32;100579.19;;;-1.80;99.74
56681;BME280;42558;52.388;13.390;2023-03-12T00:43:59;100573.56;;;-1.73;99.59
56681;BME280;42558;52.388;13.390;2023-03-12T00:46:29;100579.70;;;-1.77;99.03
56681;BME280;42558;52.388;13.390;2023-03-12T00:48:59;100580.14;;;-1.84;99.55
56681;BME280;42558;52.388;13.390;2023-03-12T00:51:29;100579.18;;;-1.74;99.82
56681;BME280;42558;52.388;13.390;2023-03-12T00:53:59;100579.56;;;-1.73;98.74
56681;BME280;42558;52.388;13.390;2023-03-12T00:56:29;100572.54;;;-1.64;98.40
56681;BME280;42558;52.388;13.390;2023-03-12T00:58:59;100574.48;;;-1.67;98.03
56681;BME280;42558;52.388;13.390;2023-03-12T01:01:29;100577.38;;;-1.67;98.30
56681;BME280;42558;52.388;13.390;2023-03-12T01:03:59;100580.96;;;-1.68;98.26
56681;BME280;42558;52.388;13.390;2023-03-12T01:06:29;100585.36;;;-1.57;97.45
56681;BME280;42558;52.388;13.390;2023-03-12T01:09:04;100587.14;;;-1.65;97.40
56681;BME280;42558;52.388;13.390;2023-03-12T01:11:35;100590.23;;;-1.65;97.66
56681;BME280;42558;52.388;13.390;2023-03-12T01:14:06;100592.52;;;-1.67;97.74
56681;BME280;42558;52.388;13.390;2023-03-12T01:16:35;100595.52;;;-1.72;98.09
56681;BME280;42558;52.388;13.390;2023-03-12T01:19:05;100599.94;;;-1.67;98.26
56681;BME280;42558;52.388;13.390;2023-03-12T01:21:35;100599.09;;;-1.61;97.72
56681;BME280;42558;52.388;13.390;2023-03-12T01:24:04;100605.61;;;-1.68;97.87
56681;BME280;42558;52.388;13.390;2023-03-12T01:26:32;100607.06;;;-1.55;98.38
56681;BME280;42558;52.388;13.390;2023-03-12T01:29:01;100601.91;;;-1.48;97.58
56681;BME280;42558;52.388;13.390;2023-03-12T01:31:29;100602.98;;;-1.51;97.66
56681;BME280;42558;52.388;13.390;2023-03-12T01:33:58;100601.30;;;-1.53;98.13
56681;BME280;42558;52.388;13.390;2023-03-12T01:36:29;100600.04;;;-1.57;98.87
56681;BME280;42558;52.388;13.390;2023-03-12T01:38:58;100608.48;;;-1.57;98.54
56681;BME280;42558;52.388;13.390;2023-03-12T01:41:29;100603.40;;;-1.52;98.76
56681;BME280;42558;52.388;13.390;2023-03-12T01:44:02;100603.97;;;-1.54;98.30
56681;BME280;42558;52.388;13.390;2023-03-12T01:46:38;100605.71;;;-1.48;98.50
56681;BME280;42558;52.388;13.390;2023-03-12T01:49:33;100613.21;;;-1.50;97.48
56681;BME280;42558;52.388;13.390;2023-03-12T01:55:06;100617.92;;;-1.40;97.82
56681;BME280;42558;52.388;13.390;2023-03-12T01:57:47;100623.33;;;-1.30;97.41
56681;BME280;42558;52.388;13.390;2023-03-12T02:00:24;100620.34;;;-1.22;96.69
56681;BME280;42558;52.388;13.390;2023-03-12T02:02:59;100620.57;;;-1.15;96.37
56681;BME280;42558;52.388;13.390;2023-03-12T02:08:11;100624.69;;;-1.16;96.57
56681;BME280;42558;52.388;13.390;2023-03-12T02:10:41;100627.95;;;-1.16;96.26
56681;BME280;42558;52.388;13.390;2023-03-12T02:13:11;100625.81;;;-1.17;96.28
56681;BME280;42558;52.388;13.390;2023-03-12T02:15:42;100624.88;;;-1.12;96.19
56681;BME280;42558;52.388;13.390;2023-03-12T02:18:17;100625.20;;;-1.16;96.35
56681;BME280;42558;52.388;13.390;2023-03-12T02:21:25;100623.30;;;-1.10;96.23
56681;BME280;42558;52.388;13.390;2023-03-12T02:24:14;100626.00;;;-1.11;96.41
56681;BME280;42558;52.388;13.390;2023-03-12T02:26:46;100629.93;;;-1.03;96.06
56681;BME280;42558;52.388;13.390;2023-03-12T02:29:17;100634.45;;;-0.99;95.78
56681;BME280;42558;52.388;13.390;2023-03-12T02:31:54;100641.44;;;-0.98;96.00
56681;BME280;42558;52.388;13.390;2023-03-12T02:34:25;100640.50;;;-0.90;95.78
56681;BME280;42558;52.388;13.390;2023-03-12T02:36:55;100641.70;;;-0.81;94.45
56681;BME280;42558;52.388;13.390;2023-03-12T02:39:25;100646.98;;;-0.76;94.21
56681;BME280;42558;52.388;13.390;2023-03-12T02:41:56;100652.05;;;-0.66;93.44
56681;BME280;42558;52.388;13.390;2023-03-12T02:44:32;100655.93;;;-0.64;93.20
56681;BME280;42558;52.388;13.390;2023-03-12T02:47:03;100660.67;;;-0.63;92.79
56681;BME280;42558;52.388;13.390;2023-03-12T02:49:33;100664.55;;;-0.65;92.74
56681;BME280;42558;52.388;13.390;2023-03-12T02:52:04;100668.60;;;-0.66;93.00
56681;BME280;42558;52.388;13.390;2023-03-12T02:54:34;100673.52;;;-0.59;92.77
56681;BME280;42558;52.388;13.390;2023-03-12T02:57:04;100670.23;;;-0.59;92.81
56681;BME280;42558;52.388;13.390;2023-03-12T02:59:33;100671.45;;;-0.58;92.93
56681;BME280;42558;52.388;13.390;2023-03-12T03:02:03;100674.16;;;-0.56;92.91
56681;BME280;42558;52.388;13.390;2023-03-12T03:04:34;100670.87;;;-0.50;92.34
56681;BME280;42558;52.388;13.390;2023-03-12T03:07:04;100677.02;;;-0.51;92.07
56681;BME280;42558;52.388;13.390;2023-03-12T03:09:34;100678.52;;;-0.50;92.22
56681;BME280;42558;52.388;13.390;2023-03-12T03:12:05;100679.10;;;-0.55;92.60
56681;BME280;42558;52.388;13.390;2023-03-12T03:14:37;100681.63;;;-0.56;92.49
56681;BME280;42558;52.388;13.390;2023-03-12T03:17:07;100681.73;;;-0.60;92.84
56681;BME280;42558;52.388;13.390;2023-03-12T03:19:37;100681.48;;;-0.67;93.21
56681;BME280;42558;52.388;13.390;2023-03-12T03:22:07;100686.84;;;-0.76;93.93
56681;BME280;42558;52.388;13.390;2023-03-12T03:24:37;100687.08;;;-0.81;94.40
56681;BME280;42558;52.388;13.390;2023-03-12T03:27:06;100690.34;;;-0.82;94.28
56681;BME280;42558;52.388;13.390;2023-03-12T03:29:37;100691.10;;;-0.89;94.36
56681;BME280;42558;52.388;13.390;2023-03-12T03:32:07;100693.98;;;-0.99;95.17
56681;BME280;42558;52.388;13.390;2023-03-12T03:34:37;100693.73;;;-1.06;95.50
56681;BME280;42558;52.388;13.390;2023-03-12T03:37:07;100692.58;;;-1.11;95.99
56681;BME280;42558;52.388;13.390;2023-03-12T03:39:37;100694.42;;;-1.15;96.17
56681;BME280;42558;52.388;13.390;2023-03-12T03:42:08;100699.02;;;-1.19;96.58
56681;BME280;42558;52.388;13.390;2023-03-12T03:44:41;100702.77;;;-1.20;96.55
56681;BME280;42558;52.388;13.390;2023-03-12T03:47:11;100705.23;;;-1.27;96.83
56681;BME280;42558;52.388;13.390;2023-03-12T03:49:40;100708.77;;;-1.25;96.98
56681;BME280;42558;52.388;13.390;2023-03-12T03:52:10;100708.69;;;-1.24;96.75
56681;BME280;42558;52.388;13.390;2023-03-12T03:54:40;100709.95;;;-1.29;96.96
56681;BME280;42558;52.388;13.390;2023-03-12T03:57:10;100714.89;;;-1.27;97.16
56681;BME280;42558;52.388;13.390;2023-03-12T03:59:40;100714.52;;;-1.33;96.99
56681;BME280;42558;52.388;13.390;2023-03-12T04:02:09;100719.62;;;-1.41;97.48
56681;BME280;42558;52.388;13.390;2023-03-12T04:04:39;100719.57;;;-1.44;97.79
56681;BME280;42558;52.388;13.390;2023-03-12T04:07:08;100720.52;;;-1.43;98.38
56681;BME280;42558;52.388;13.390;2023-03-12T04:09:36;100725.36;;;-1.42;98.53
56681;BME280;42558;52.388;13.390;2023-03-12T04:12:06;100723.54;;;-1.50;98.36
56681;BME280;42558;52.388;13.390;2023-03-12T04:14:41;100729.20;;;-1.56;99.26
56681;BME280;42558;52.388;13.390;2023-03-12T04:17:11;100730.98;;;-1.60;99.57
56681;BME280;42558;52.388;13.390;2023-03-12T04:19:41;100730.33;;;-1.66;99.95
56681;BME280;42558;52.388;13.390;2023-03-12T04:22:11;100728.48;;;-1.65;100.00
56681;BME280;42558;52.388;13.390;2023-03-12T04:24:41;100732.00;;;-1.61;100.00
56681;BME280;42558;52.388;13.390;2023-03-12T04:27:11;100731.81;;;-1.61;100.00
56681;BME280;42558;52.388;13.390;2023-03-12T04:29:41;100735.80;;;-1.67;100.00
56681;BME280;42558;52.388;13.390;2023-03-12T04:32:11;100734.98;;;-1.68;100.00
56681;BME280;42558;52.388;13.390;2023-03-12T04:34:40;100739.36;;;-1.73;100.00
56681;BME280;42558;52.388;13.390;2023-03-12T04:37:09;100740.11;;;-1.80;100.00
56681;BME280;42558;52.388;13.390;2023-03-12T04:39:44;100740.63;;;-1.77;100.00
56681;BME280;42558;52.388;13.390;2023-03-12T04:42:14;100743.59;;;-1.71;100.00
56681;BME280;42558;52.388;13.390;2023-03-12T04:44:44;100742.45;;;-1.65;100.00
56681;BME280;42558;52.388;13.390;2023-03-12T04:47:14;100744.74;;;-1.64;100.00
56681;BME280;42558;52.388;13.390;2023-03-12T04:49:43;100745.16;;;-1.71;100.00
56681;BME280;42558;52.388;13.390;2023-03-12T04:52:13;100744.36;;;-1.78;100.00
56681;BME280;42558;52.388;13.390;2023-03-12T04:54:43;100746.77;;;-1.84;100.00
56681;BME280;42558;52.388;13.390;2023-03-12T04:57:16;100748.10;;;-1.82;100.00
56681;BME280;42558;52.388;13.390;2023-03-12T04:59:46;100752.91;;;-1.88;100.00
56681;BME280;42558;52.388;13.390;2023-03-12T05:02:16;100752.30;;;-1.98;100.00
56681;BME280;42558;52.388;13.390;2023-03-12T05:04:45;100754.55;;;-1.97;100.00
56681;BME280;42558;52.388;13.390;2023-03-12T05:07:16;100755.25;;;-1.94;100.00
56681;BME280;42558;52.388;13.390;2023-03-12T05:09:46;100760.58;;;-2.03;100.00
56681;BME280;42558;52.388;13.390;2023-03-12T05:12:16;100759.81;;;-2.12;100.00
56681;BME280;42558;52.388;13.390;2023-03-12T05:14:46;100762.98;;;-2.19;100.00
56681;BME280;42558;52.388;13.390;2023-03-12T05:17:16;100761.21;;;-2.22;100.00
56681;BME280;42558;52.388;13.390;2023-03-12T05:19:45;100766.08;;;-2.27;100.00
56681;BME280;42558;52.388;13.390;2023-03-12T05:22:16;100766.83;;;-2.34;100.00
56681;BME280;42558;52.388;13.390;2023-03-12T05:24:46;100770.69;;;-2.38;100.00
56681;BME280;42558;52.388;13.390;2023-03-12T05:27:16;100771.41;;;-2.45;100.00
56681;BME280;42558;52.388;13.390;2023-03-12T05:29:46;100772.69;;;-2.52;100.00
56681;BME280;42558;52.388;13.390;2023-03-12T05:32:16;100768.80;;;-2.56;100.00
56681;BME280;42558;52.388;13.390;2023-03-12T05:34:46;100769.15;;;-2.59;100.00
56681;BME280;42558;52.388;13.390;2023-03-12T05:37:14;100769.48;;;-2.62;100.00
56681;BME280;42558;52.388;13.390;2023-03-12T05:39:42;100768.22;;;-2.68;100.00
56681;BME280;42558;52.388;13.390;2023-03-12T05:42:17;100770.45;;;-2.70;100.00
56681;BME280;42558;52.388;13.390;2023-03-12T05:44:47;100769.86;;;-2.74;100.00
56681;BME280;42558;52.388;13.390;2023-03-12T05:47:18;100767.15;;;-2.79;100.00
56681;BME280;42558;52.388;13.390;2023-03-12T05:49:47;100762.48;;;-2.76;100.00
56681;BME280;42558;52.388;13.390;2023-03-12T05:52:17;100759.89;;;-2.81;100.00
56681;BME280;42558;52.388;13.390;2023-03-12T05:54:46;100761.45;;;-2.84;100.00
56681;BME280;42558;52.388;13.390;2023-03-12T05:57:16;100761.80;;;-2.87;100.00
56681;BME280;42558;52.388;13.390;2023-03-12T05:59:46;100762.21;;;-2.91;100.00
56681;BME280;42558;52.388;13.390;2023-03-12T06:02:16;100768.37;;;-2.93;100.00
56681;BME280;42558;52.388;13.390;2023-03-12T06:04:46;100772.96;;;-2.89;100.00
56681;BME280;42558;52.388;13.390;2023-03-12T06:07:15;100772.59;;;-2.85;100.00
56681;BME280;42558;52.388;13.390;2023-03-12T06:09:45;100774.63;;;-2.80;100.00
56681;BME280;42558;52.388;13.390;2023-03-12T06:12:15;100773.27;;;-2.77;100.00
56681;BME280;42558;52.388;13.390;2023-03-12T06:14:45;100775.92;;;-2.66;100.00
56681;BME280;42558;52.388;13.390;2023-03-12T06:17:15;100778.62;;;-2.59;100.00
56681;BME280;42558;52.388;13.390;2023-03-12T06:19:45;100781.42;;;-2.50;100.00
56681;BME280;42558;52.388;13.390;2023-03-12T06:22:14;100781.09;;;-2.39;100.00
56681;BME280;42558;52.388;13.390;2023-03-12T06:24:44;100784.77;;;-2.33;100.00
56681;BME280;42558;52.388;13.390;2023-03-12T06:27:16;100789.08;;;-2.25;100.00
56681;BME280;42558;52.388;13.390;2023-03-12T06:29:45;100782.45;;;-2.27;100.00
56681;BME280;42558;52.388;13.390;2023-03-12T06:32:16;100785.36;;;-2.19;100.00
56681;BME280;42558;52.388;13.390;2023-03-12T06:34:46;100784.42;;;-2.15;100.00
56681;BME280;42558;52.388;13.390;2023-03-12T06:37:16;100788.02;;;-2.04;100.00
56681;BME280;42558;52.388;13.390;2023-03-12T06:39:46;100791.58;;;-1.91;100.00
56681;BME280;42558;52.388;13.390;2023-03-12T06:42:16;100792.77;;;-1.86;100.00
56681;BME280;42558;52.388;13.390;2023-03-12T06:44:48;100793.38;;;-1.82;100.00
56681;BME280;42558;52.388;13.390;2023-03-12T06:47:17;100796.12;;;-1.75;100.00
56681;BME280;42558;52.388;13.390;2023-03-12T06:49:47;100794.06;;;-1.58;100.00
56681;BME280;42558;52.388;13.390;2023-03-12T06:52:17;100793.89;;;-1.36;100.00
56681;BME280;42558;52.388;13.390;2023-03-12T06:54:47;100791.35;;;-1.15;100.00
56681;BME280;42558;52.388;13.390;2023-03-12T06:57:17;100792.70;;;-0.98;99.82
56681;BME280;42558;52.388;13.390;2023-03-12T06:59:47;100796.35;;;-0.90;98.61
56681;BME280;42558;52.388;13.390;2023-03-12T07:02:17;100796.58;;;-0.79;98.42
56681;BME280;42558;52.388;13.390;2023-03-12T07:04:47;100796.13;;;-0.61;99.14
56681;BME280;42558;52.388;13.390;2023-03-12T07:07:17;100801.45;;;-0.59;97.10
56681;BME280;42558;52.388;13.390;2023-03-12T07:09:47;100798.35;;;-0.44;97.06
56681;BME280;42558;52.388;13.390;2023-03-12T07:12:17;100799.65;;;-0.33;96.07
56681;BME280;42558;52.388;13.390;2023-03-12T07:14:47;100800.27;;;-0.32;94.09
56681;BME280;42558;52.388;13.390;2023-03-12T07:17:17;100798.89;;;-0.19;93.62
56681;BME280;42558;52.388;13.390;2023-03-12T07:19:46;100798.52;;;-0.14;92.66
56681;BME280;42558;52.388;13.390;2023-03-12T07:22:17;100800.33;;;0.15;92.13
56681;BME280;42558;52.388;13.390;2023-03-12T07:24:46;100804.42;;;0.15;90.74
56681;BME280;42558;52.388;13.390;2023-03-12T07:27:17;100801.52;;;0.37;90.69
56681;BME280;42558;52.388;13.390;2023-03-12T07:29:47;100800.95;;;0.52;89.44
56681;BME280;42558;52.388;13.390;2023-03-12T07:32:17;100804.41;;;0.68;88.35
56681;BME280;42558;52.388;13.390;2023-03-12T07:34:47;100800.33;;;0.82;87.43
56681;BME280;42558;52.388;13.390;2023-03-12T07:37:16;100804.46;;;0.72;88.07
56681;BME280;42558;52.388;13.390;2023-03-12T07:39:46;100805.48;;;1.01;88.21
56681;BME280;42558;52.388;13.390;2023-03-12T07:42:20;100806.08;;;0.99;86.16
56681;BME280;42558;52.388;13.390;2023-03-12T07:44:50;100809.58;;;1.10;86.58
56681;BME280;42558;52.388;13.390;2023-03-12T07:47:18;100805.84;;;1.24;85.88
56681;BME280;42558;52.388;13.390;2023-03-12T07:49:50;100804.90;;;1.17;86.18
56681;BME280;42558;52.388;13.390;2023-03-12T07:52:18;100803.39;;;0.94;85.91
56681;BME280;42558;52.388;13.390;2023-03-12T07:54:47;100810.70;;;0.78;87.54
56681;BME280;42558;52.388;13.390;2023-03-12T07:57:15;100808.79;;;0.85;88.64
56681;BME280;42558;52.388;13.390;2023-03-12T07:59:44;100808.85;;;0.90;88.07
56681;BME280;42558;52.388;13.390;2023-03-12T08:02:16;100811.17;;;0.94;89.29
56681;BME280;42558;52.388;13.390;2023-03-12T08:04:43;100812.36;;;0.94;89.18
56681;BME280;42558;52.388;13.390;2023-03-12T08:07:13;100815.05;;;1.42;89.31
56681;BME280;42558;52.388;13.390;2023-03-12T08:09:43;100816.38;;;1.65;87.32
56681;BME280;42558;52.388;13.390;2023-03-12T08:12:14;100816.73;;;1.69;85.77
56681;BME280;42558;52.388;13.390;2023-03-12T08:14:44;100819.68;;;1.72;86.54
56681;BME280;42558;52.388;13.390;2023-03-12T08:17:15;100819.81;;;2.17;84.64
56681;BME280;42558;52.388;13.390;2023-03-12T08:19:45;100823.83;;;2.25;83.52
56681;BME280;42558;52.388;13.390;2023-03-12T08:22:13;100820.67;;;2.35;82.41
56681;BME280;42558;52.388;13.390;2023-03-12T08:24:41;100824.57;;;2.41;82.26
56681;BME280;42558;52.388;13.390;2023-03-12T08:27:10;100819.77;;;2.56;80.85
56681;BME280;42558;52.388;13.390;2023-03-12T08:29:41;100822.61;;;2.25;80.84
56681;BME280;42558;52.388;13.390;2023-03-12T08:32:09;100825.66;;;1.80;83.68
56681;BME280;42558;52.388;13.390;2023-03-12T08:34:38;100825.36;;;2.00;84.61
56681;BME280;42558;52.388;13.390;2023-03-12T08:37:08;100819.48;;;3.04;84.20
56681;BME280;42558;52.388;13.390;2023-03-12T08:39:38;100818.77;;;3.67;79.66
56681;BME280;42558;52.388;13.390;2023-03-12T08:42:09;100821.14;;;3.66;78.52
56681;BME280;42558;52.388;13.390;2023-03-12T08:44:39;100817.31;;;3.45;77.23
56681;BME280;42558;52.388;13.390;2023-03-12T08:47:09;100811.01;;;2.89;78.43
56681;BME280;42558;52.388;13.390;2023-03-12T08:49:39;100811.45;;;3.27;78.69
56681;BME280;42558;52.388;13.390;2023-03-12T08:52:09;100808.58;;;3.40;78.00
56681;BME280;42558;52.388;13.390;2023-03-12T08:54:38;100805.29;;;3.98;78.03
56681;BME280;42558;52.388;13.390;2023-03-12T08:57:08;100799.29;;;4.23;76.07
56681;BME280;42558;52.388;13.390;2023-03-12T08:59:39;100803.70;;;4.07;77.44
56681;BME280;42558;52.388;13.390;2023-03-12T09:02:12;100797.84;;;4.71;74.47
56681;BME280;42558;52.388;13.390;2023-03-12T09:04:40;100803.38;;;3.82;73.44
56681;BME280;42558;52.388;13.390;2023-03-12T09:07:10;100800.80;;;4.30;75.60
56681;BME280;42558;52.388;13.390;2023-03-12T09:09:40;100797.24;;;4.55;73.15
56681;BME280;42558;52.388;13.390;2023-03-12T09:12:13;100796.05;;;4.65;72.95
56681;BME280;42558;52.388;13.390;2023-03-12T09:14:44;100794.07;;;4.81;71.49
56681;BME280;42558;52.388;13.390;2023-03-12T09:17:32;100792.84;;;4.81;71.00
56681;BME280;42558;52.388;13.390;2023-03-12T09:20:04;100793.71;;;4.58;71.26
56681;BME280;42558;52.388;13.390;2023-03-12T09:22:36;100793.75;;;3.72;73.04
56681;BME280;42558;52.388;13.390;2023-03-12T09:25:09;100788.31;;;4.13;73.72
56681;BME280;42558;52.388;13.390;2023-03-12T09:27:43;100790.09;;;4.15;72.88
56681;BME280;42558;52.388;13.390;2023-03-12T09:30:18;100780.21;;;4.34;71.40
56681;BME280;42558;52.388;13.390;2023-03-12T09:32:48;100787.58;;;3.57;73.32
56681;BME280;42558;52.388;13.390;2023-03-12T09:35:18;100782.83;;;4.11;73.51
56681;BME280;42558;52.388;13.390;2023-03-12T09:37:49;100788.20;;;4.02;73.94
56681;BME280;42558;52.388;13.390;2023-03-12T09:40:23;100784.58;;;4.66;72.80
56681;BME280;42558;52.388;13.390;2023-03-12T09:42:58;100781.89;;;5.10;70.55
56681;BME280;42558;52.388;13.390;2023-03-12T09:45:43;100781.48;;;4.39;72.20
56681;BME280;42558;52.388;13.390;2023-03-12T09:48:19;100781.57;;;4.46;72.37
56681;BME280;42558;52.388;13.390;2023-03-12T09:50:52;100778.88;;;5.19;71.60
56681;BME280;42558;52.388;13.390;2023-03-12T09:53:47;100782.04;;;4.36;71.03
56681;BME280;42558;52.388;13.390;2023-03-12T09:56:21;100780.59;;;4.99;71.28
56681;BME280;42558;52.388;13.390;2023-03-12T09:58:51;100779.50;;;5.47;69.37
56681;BME280;42558;52.388;13.390;2023-03-12T10:01:36;100775.67;;;5.12;68.85
56681;BME280;42558;52.388;13.390;2023-03-12T10:07:20;100772.63;;;4.91;70.38
56681;BME280;42558;52.388;13.390;2023-03-12T10:18:57;100757.36;;;5.58;67.61
56681;BME280;42558;52.388;13.390;2023-03-12T10:21:53;100751.81;;;6.11;67.75
56681;BME280;42558;52.388;13.390;2023-03-12T10:24:41;100751.61;;;5.68;66.31
56681;BME280;42558;52.388;13.390;2023-03-12T10:27:17;100751.77;;;5.82;65.93
56681;BME280;42558;52.388;13.390;2023-03-12T10:29:50;100745.11;;;6.09;65.15
56681;BME280;42558;52.388;13.390;2023-03-12T10:32:53;100737.60;;;6.25;63.79
56681;BME280;42558;52.388;13.390;2023-03-12T10:35:27;100732.23;;;6.22;64.31
56681;BME280;42558;52.388;13.390;2023-03-12T10:38:02;100729.33;;;6.29;65.15
56681;BME280;42558;52.388;13.390;2023-03-12T10:40:35;100721.10;;;6.76;62.08
56681;BME280;42558;52.388;13.390;2023-03-12T10:43:05;100721.54;;;6.37;62.07
56681;BME280;42558;52.388;13.390;2023-03-12T10:45:43;100719.31;;;6.15;62.91
56681;BME280;42558;52.388;13.390;2023-03-12T10:48:22;100717.74;;;6.33;64.48
56681;BME280;42558;52.388;13.390;2023-03-12T10:51:11;100717.23;;;6.44;63.48
56681;BME280;42558;52.388;13.390;2023-03-12T10:53:44;100722.83;;;5.52;65.56
56681;BME280;42558;52.388;13.390;2023-03-12T10:56:19;100720.17;;;5.66;63.95
56681;BME280;42558;52.388;13.390;2023-03-12T10:58:51;100714.48;;;6.06;63.86
56681;BME280;42558;52.388;13.390;2023-03-12T11:01:30;100714.52;;;5.44;63.78
56681;BME280;42558;52.388;13.390;2023-03-12T11:04:22;100701.75;;;6.47;63.11
56681;BME280;42558;52.388;13.390;2023-03-12T11:09:32;100691.41;;;6.52;61.94
56681;BME280;42558;52.388;13.390;2023-03-12T11:12:27;100687.84;;;6.15;59.61
56681;BME280;42558;52.388;13.390;2023-03-12T11:17:47;100687.29;;;5.80;61.49
56681;BME280;42558;52.388;13.390;2023-03-12T11:20:28;100672.16;;;6.21;59.90
56681;BME280;42558;52.388;13.390;2023-03-12T11:23:19;100674.48;;;5.51;60.96
56681;BME280;42558;52.388;13.390;2023-03-12T11:26:19;100673.09;;;5.40;61.60
56681;BME280;42558;52.388;13.390;2023-03-12T11:28:58;100670.68;;;5.62;61.77
56681;BME280;42558;52.388;13.390;2023-03-12T11:31:40;100665.53;;;5.82;61.06
56681;BME280;42558;52.388;13.390;2023-03-12T11:34:30;100672.79;;;5.36;61.95
56681;BME280;42558;52.388;13.390;2023-03-12T11:49:47;100647.85;;;5.74;62.14
56681;BME280;42558;52.388;13.390;2023-03-12T11:55:18;100644.30;;;5.44;56.10
56681;BME280;42558;52.388;13.390;2023-03-12T12:00:56;100640.91;;;4.85;55.72
56681;BME280;42558;52.388;13.390;2023-03-12T12:24:50;100589.61;;;5.35;54.25
56681;BME280;42558;52.388;13.390;2023-03-12T12:27:29;100585.72;;;5.39;52.73
56681;BME280;42558;52.388;13.390;2023-03-12T12:30:18;100589.29;;;4.98;52.03
56681;BME280;42558;52.388;13.390;2023-03-12T12:35:39;100584.75;;;5.46;53.20
56681;BME280;42558;52.388;13.390;2023-03-12T12:38:22;100575.79;;;5.50;52.52
56681;BME280;42558;52.388;13.390;2023-03-12T12:41:23;100567.05;;;5.22;51.55
56681;BME280;42558;52.388;13.390;2023-03-12T12:44:03;100554.70;;;5.06;51.42
56681;BME280;42558;52.388;13.390;2023-03-12T12:46:38;100543.23;;;5.29;51.27
56681;BME280;42558;52.388;13.390;2023-03-12T12:49:14;100534.84;;;5.06;50.88
56681;BME280;42558;52.388;13.390;2023-03-12T12:52:00;100535.78;;;4.98;50.48
56681;BME280;42558;52.388;13.390;2023-03-12T13:00:41;100522.35;;;5.47;52.00
56681;BME280;42558;52.388;13.390;2023-03-12T13:03:18;100524.73;;;5.62;53.79
56681;BME280;42558;52.388;13.390;2023-03-12T13:06:04;100517.60;;;5.63;53.73
56681;BME280;42558;52.388;13.390;2023-03-12T13:16:39;100505.89;;;5.33;54.68
56681;BME280;42558;52.388;13.390;2023-03-12T13:27:44;100492.92;;;5.20;50.75
56681;BME280;42558;52.388;13.390;2023-03-12T13:33:10;100501.27;;;5.07;50.27
56681;BME280;42558;52.388;13.390;2023-03-12T13:35:48;100503.14;;;4.90;48.41
56681;BME280;42558;52.388;13.390;2023-03-12T13:38:51;100504.11;;;4.82;47.84
56681;BME280;42558;52.388;13.390;2023-03-12T13:41:54;100506.57;;;4.61;47.39
56681;BME280;42558;52.388;13.390;2023-03-12T13:44:31;100507.19;;;4.70;48.74
56681;BME280;42558;52.388;13.390;2023-03-12T13:47:28;100506.95;;;4.63;48.55
56681;BME280;42558;52.388;13.390;2023-03-12T13:50:12;100511.08;;;4.55;49.58
56681;BME280;42558;52.388;13.390;2023-03-12T13:52:54;100500.13;;;4.51;50.34
56681;BME280;42558;52.388;13.390;2023-03-12T13:55:33;100477.87;;;4.57;52.02
56681;BME280;42558;52.388;13.390;2023-03-12T14:01:03;100500.28;;;4.67;51.86
56681;BME280;42558;52.388;13.390;2023-03-12T14:04:05;100490.14;;;4.55;53.54
56681;BME280;42558;52.388;13.390;2023-03-12T14:15:40;100462.06;;;4.75;55.35
56681;BME280;42558;52.388;13.390;2023-03-12T14:18:23;100453.88;;;4.63;54.95
56681;BME280;42558;52.388;13.390;2023-03-12T14:21:00;100458.78;;;4.70;55.44
56681;BME280;42558;52.388;13.390;2023-03-12T14:23:38;100465.30;;;4.40;56.21
56681;BME280;42558;52.388;13.390;2023-03-12T14:26:22;100469.20;;;4.58;56.80
56681;BME280;42558;52.388;13.390;2023-03-12T14:29:00;100465.86;;;4.68;56.67
56681;BME280;42558;52.388;13.390;2023-03-12T14:31:35;100456.98;;;4.52;56.69
56681;BME280;42558;52.388;13.390;2023-03-12T14:34:20;100451.58;;;4.57;56.72
56681;BME280;42558;52.388;13.390;2023-03-12T14:37:19;100451.61;;;4.53;57.50
56681;BME280;42558;52.388;13.390;2023-03-12T14:40:02;100452.00;;;4.43;57.10
56681;BME280;42558;52.388;13.390;2023-03-12T14:42:35;100453.05;;;4.38;57.90
56681;BME280;42558;52.388;13.390;2023-03-12T14:47:46;100472.40;;;4.09;57.13
56681;BME280;42558;52.388;13.390;2023-03-12T14:50:20;100471.84;;;4.13;57.38
56681;BME280;42558;52.388;13.390;2023-03-12T14:52:52;100464.48;;;4.16;57.49
56681;BME280;42558;52.388;13.390;2023-03-12T14:55:24;100455.58;;;4.16;58.20
56681;BME280;42558;52.388;13.390;2023-03-12T14:58:24;100456.59;;;4.15;58.23
56681;BME280;42558;52.388;13.390;2023-03-12T15:01:00;100462.55;;;4.01;58.41